sensor_id;sensor_type;location;lat;lon;timestamp;P1;durP1;ratioP1;P2;durP2;ratioP2
80536;SDS011;69867;47.074;15.404;2024-01-07T00:00:29;0.88;;;0.20;;
80536;SDS011;69867;47.074;15.404;2024-01-07T00:02:54;1.33;;;0.30;;
80536;SDS011;69867;47.074;15.404;2024-01-07T00:05:20;0.77;;;0.30;;
80536;SDS011;69867;47.074;15.404;2024-01-07T00:07:45;1.27;;;0.30;;
80536;SDS011;69867;47.074;15.404;2024-01-07T00:10:10;0.98;;;0.43;;
80536;SDS011;69867;47.074;15.404;2024-01-07T00:12:36;1.05;;;0.20;;
80536;SDS011;69867;47.074;15.404;2024-01-07T00:15:01;0.82;;;0.13;;
80536;SDS011;69867;47.074;15.404;2024-01-07T00:17:26;1.10;;;0.38;;
80536;SDS011;69867;47.074;15.404;2024-01-07T00:19:52;1.00;;;0.17;;
80536;SDS011;69867;47.074;15.404;2024-01-07T00:22:17;1.55;;;0.17;;
80536;SDS011;69867;47.074;15.404;2024-01-07T00:24:43;0.90;;;0.20;;
80536;SDS011;69867;47.074;15.404;2024-01-07T00:27:08;0.60;;;0.22;;
80536;SDS011;69867;47.074;15.404;2024-01-07T00:29:33;1.58;;;0.30;;
80536;SDS011;69867;47.074;15.404;2024-01-07T00:31:59;0.82;;;0.22;;
80536;SDS011;69867;47.074;15.404;2024-01-07T00:34:24;0.43;;;0.10;;
80536;SDS011;69867;47.074;15.404;2024-01-07T00:36:49;0.80;;;0.22;;
80536;SDS011;69867;47.074;15.404;2024-01-07T00:39:15;0.40;;;0.10;;
80536;SDS011;69867;47.074;15.404;2024-01-07T00:41:40;1.05;;;0.10;;
80536;SDS011;69867;47.074;15.404;2024-01-07T00:44:05;1.13;;;0.20;;
80536;SDS011;69867;47.074;15.404;2024-01-07T00:46:31;1.25;;;0.35;;
80536;SDS011;69867;47.074;15.404;2024-01-07T00:48:56;0.50;;;0.10;;
80536;SDS011;69867;47.074;15.404;2024-01-07T00:51:21;0.52;;;0.10;;
80536;SDS011;69867;47.074;15.404;2024-01-07T00:53:47;0.75;;;0.20;;
80536;SDS011;69867;47.074;15.404;2024-01-07T00:56:12;2.20;;;0.20;;
80536;SDS011;69867;47.074;15.404;2024-01-07T00:58:37;0.50;;;0.10;;
80536;SDS011;69867;47.074;15.404;2024-01-07T01:01:03;0.25;;;0.10;;
80536;SDS011;69867;47.074;15.404;2024-01-07T01:03:28;0.80;;;0.20;;
80536;SDS011;69867;47.074;15.404;2024-01-07T01:05:54;0.70;;;0.20;;
80536;SDS011;69867;47.074;15.404;2024-01-07T01:08:19;0.82;;;0.20;;
80536;SDS011;69867;47.074;15.404;2024-01-07T01:10:44;0.98;;;0.20;;
80536;SDS011;69867;47.074;15.404;2024-01-07T01:13:10;0.95;;;0.20;;
80536;SDS011;69867;47.074;15.404;2024-01-07T01:15:35;1.15;;;0.20;;
80536;SDS011;69867;47.074;15.404;2024-01-07T01:18:01;0.82;;;0.20;;
80536;SDS011;69867;47.074;15.404;2024-01-07T01:20:26;0.55;;;0.15;;
80536;SDS011;69867;47.074;15.404;2024-01-07T01:22:51;0.65;;;0.10;;
80536;SDS011;69867;47.074;15.404;2024-01-07T01:25:17;0.57;;;0.20;;
80536;SDS011;69867;47.074;15.404;2024-01-07T01:27:42;1.10;;;0.22;;
80536;SDS011;69867;47.074;15.404;2024-01-07T01:30:07;0.50;;;0.10;;
80536;SDS011;69867;47.074;15.404;2024-01-07T01:32:33;2.38;;;0.22;;
80536;SDS011;69867;47.074;15.404;2024-01-07T01:34:58;0.65;;;0.15;;
80536;SDS011;69867;47.074;15.404;2024-01-07T01:37:24;0.25;;;0.10;;
80536;SDS011;69867;47.074;15.404;2024-01-07T01:39:49;0.20;;;0.10;;
80536;SDS011;69867;47.074;15.404;2024-01-07T01:42:14;1.13;;;0.30;;
80536;SDS011;69867;47.074;15.404;2024-01-07T01:44:40;1.10;;;0.30;;
80536;SDS011;69867;47.074;15.404;2024-01-07T01:47:06;0.35;;;0.20;;
80536;SDS011;69867;47.074;15.404;2024-01-07T01:49:32;2.33;;;0.30;;
80536;SDS011;69867;47.074;15.404;2024-01-07T01:51:57;0.25;;;0.00;;
80536;SDS011;69867;47.074;15.404;2024-01-07T01:54:22;0.30;;;0.10;;
80536;SDS011;69867;47.074;15.404;2024-01-07T01:56:48;0.60;;;0.10;;
80536;SDS011;69867;47.074;15.404;2024-01-07T01:59:14;0.75;;;0.20;;
80536;SDS011;69867;47.074;15.404;2024-01-07T02:01:40;1.02;;;0.30;;
80536;SDS011;69867;47.074;15.404;2024-01-07T02:04:06;1.25;;;0.28;;
80536;SDS011;69867;47.074;15.404;2024-01-07T02:06:32;1.33;;;0.20;;
80536;SDS011;69867;47.074;15.404;2024-01-07T02:08:57;0.60;;;0.20;;
80536;SDS011;69867;47.074;15.404;2024-01-07T02:11:23;0.55;;;0.17;;
80536;SDS011;69867;47.074;15.404;2024-01-07T02:13:48;0.75;;;0.20;;
80536;SDS011;69867;47.074;15.404;2024-01-07T02:16:14;1.48;;;0.20;;
80536;SDS011;69867;47.074;15.404;2024-01-07T02:18:40;1.02;;;0.28;;
80536;SDS011;69867;47.074;15.404;2024-01-07T02:21:06;0.98;;;0.30;;
80536;SDS011;69867;47.074;15.404;2024-01-07T02:23:32;0.10;;;0.10;;
80536;SDS011;69867;47.074;15.404;2024-01-07T02:25:58;0.65;;;0.20;;
80536;SDS011;69867;47.074;15.404;2024-01-07T02:28:23;0.40;;;0.10;;
80536;SDS011;69867;47.074;15.404;2024-01-07T02:30:48;0.47;;;0.10;;
80536;SDS011;69867;47.074;15.404;2024-01-07T02:33:14;0.25;;;0.10;;
80536;SDS011;69867;47.074;15.404;2024-01-07T02:35:39;1.25;;;0.25;;
80536;SDS011;69867;47.074;15.404;2024-01-07T02:38:04;0.70;;;0.20;;
80536;SDS011;69867;47.074;15.404;2024-01-07T02:40:30;0.65;;;0.20;;
80536;SDS011;69867;47.074;15.404;2024-01-07T02:42:55;1.10;;;0.30;;
80536;SDS011;69867;47.074;15.404;2024-01-07T02:45:20;0.43;;;0.13;;
80536;SDS011;69867;47.074;15.404;2024-01-07T02:47:46;0.65;;;0.20;;
80536;SDS011;69867;47.074;15.404;2024-01-07T02:50:11;1.13;;;0.20;;
80536;SDS011;69867;47.074;15.404;2024-01-07T02:52:36;0.43;;;0.10;;
80536;SDS011;69867;47.074;15.404;2024-01-07T02:55:02;0.90;;;0.20;;
80536;SDS011;69867;47.074;15.404;2024-01-07T02:57:27;0.65;;;0.20;;
80536;SDS011;69867;47.074;15.404;2024-01-07T02:59:53;0.90;;;0.20;;
80536;SDS011;69867;47.074;15.404;2024-01-07T03:02:18;0.13;;;0.10;;
80536;SDS011;69867;47.074;15.404;2024-01-07T03:04:44;0.88;;;0.20;;
80536;SDS011;69867;47.074;15.404;2024-01-07T03:07:09;0.40;;;0.15;;
80536;SDS011;69867;47.074;15.404;2024-01-07T03:09:34;0.50;;;0.10;;
80536;SDS011;69867;47.074;15.404;2024-01-07T03:12:00;0.77;;;0.20;;
80536;SDS011;69867;47.074;15.404;2024-01-07T03:14:25;0.47;;;0.20;;
80536;SDS011;69867;47.074;15.404;2024-01-07T03:16:50;0.85;;;0.30;;
80536;SDS011;69867;47.074;15.404;2024-01-07T03:19:16;1.65;;;0.25;;
80536;SDS011;69867;47.074;15.404;2024-01-07T03:21:41;0.88;;;0.20;;
80536;SDS011;69867;47.074;15.404;2024-01-07T03:24:06;0.47;;;0.10;;
80536;SDS011;69867;47.074;15.404;2024-01-07T03:26:32;0.43;;;0.10;;
80536;SDS011;69867;47.074;15.404;2024-01-07T03:28:58;1.88;;;0.38;;
80536;SDS011;69867;47.074;15.404;2024-01-07T03:31:23;0.98;;;0.20;;
80536;SDS011;69867;47.074;15.404;2024-01-07T03:33:49;0.38;;;0.10;;
80536;SDS011;69867;47.074;15.404;2024-01-07T03:36:14;0.88;;;0.17;;
80536;SDS011;69867;47.074;15.404;2024-01-07T03:38:40;0.93;;;0.20;;
80536;SDS011;69867;47.074;15.404;2024-01-07T03:41:05;0.55;;;0.20;;
80536;SDS011;69867;47.074;15.404;2024-01-07T03:43:31;0.80;;;0.20;;
80536;SDS011;69867;47.074;15.404;2024-01-07T03:45:57;0.75;;;0.20;;
80536;SDS011;69867;47.074;15.404;2024-01-07T03:48:23;0.68;;;0.17;;
80536;SDS011;69867;47.074;15.404;2024-01-07T03:50:48;0.80;;;0.15;;
80536;SDS011;69867;47.074;15.404;2024-01-07T03:53:14;0.57;;;0.10;;
80536;SDS011;69867;47.074;15.404;2024-01-07T03:55:39;0.70;;;0.20;;
80536;SDS011;69867;47.074;15.404;2024-01-07T03:58:05;0.95;;;0.15;;
80536;SDS011;69867;47.074;15.404;2024-01-07T04:00:30;0.50;;;0.13;;
80536;SDS011;69867;47.074;15.404;2024-01-07T04:02:56;0.75;;;0.20;;
80536;SDS011;69867;47.074;15.404;2024-01-07T04:05:22;0.70;;;0.20;;
80536;SDS011;69867;47.074;15.404;2024-01-07T04:07:47;0.75;;;0.10;;
80536;SDS011;69867;47.074;15.404;2024-01-07T04:10:12;0.55;;;0.20;;
80536;SDS011;69867;47.074;15.404;2024-01-07T04:12:38;0.85;;;0.28;;
80536;SDS011;69867;47.074;15.404;2024-01-07T04:15:04;0.65;;;0.10;;
80536;SDS011;69867;47.074;15.404;2024-01-07T04:17:29;0.65;;;0.22;;
80536;SDS011;69867;47.074;15.404;2024-01-07T04:19:55;0.90;;;0.20;;
80536;SDS011;69867;47.074;15.404;2024-01-07T04:22:20;0.68;;;0.20;;
80536;SDS011;69867;47.074;15.404;2024-01-07T04:24:46;0.70;;;0.22;;
80536;SDS011;69867;47.074;15.404;2024-01-07T04:27:11;0.47;;;0.20;;
80536;SDS011;69867;47.074;15.404;2024-01-07T04:29:36;1.15;;;0.40;;
80536;SDS011;69867;47.074;15.404;2024-01-07T04:32:02;0.50;;;0.10;;
80536;SDS011;69867;47.074;15.404;2024-01-07T04:34:27;1.27;;;0.30;;
80536;SDS011;69867;47.074;15.404;2024-01-07T04:36:53;1.02;;;0.22;;
80536;SDS011;69867;47.074;15.404;2024-01-07T04:39:18;0.47;;;0.10;;
80536;SDS011;69867;47.074;15.404;2024-01-07T04:41:43;1.00;;;0.20;;
80536;SDS011;69867;47.074;15.404;2024-01-07T04:44:09;0.47;;;0.10;;
80536;SDS011;69867;47.074;15.404;2024-01-07T04:46:34;0.77;;;0.22;;
80536;SDS011;69867;47.074;15.404;2024-01-07T04:49:03;0.98;;;0.20;;
80536;SDS011;69867;47.074;15.404;2024-01-07T04:51:28;1.35;;;0.30;;
80536;SDS011;69867;47.074;15.404;2024-01-07T04:53:54;1.38;;;0.30;;
80536;SDS011;69867;47.074;15.404;2024-01-07T04:56:19;1.13;;;0.30;;
80536;SDS011;69867;47.074;15.404;2024-01-07T04:58:44;1.13;;;0.30;;
80536;SDS011;69867;47.074;15.404;2024-01-07T05:01:10;0.77;;;0.20;;
80536;SDS011;69867;47.074;15.404;2024-01-07T05:03:35;0.85;;;0.20;;
80536;SDS011;69867;47.074;15.404;2024-01-07T05:06:00;1.10;;;0.20;;
80536;SDS011;69867;47.074;15.404;2024-01-07T05:08:26;0.85;;;0.25;;
80536;SDS011;69867;47.074;15.404;2024-01-07T05:10:51;0.57;;;0.10;;
80536;SDS011;69867;47.074;15.404;2024-01-07T05:13:17;1.17;;;0.35;;
80536;SDS011;69867;47.074;15.404;2024-01-07T05:15:42;1.10;;;0.30;;
80536;SDS011;69867;47.074;15.404;2024-01-07T05:18:07;0.95;;;0.20;;
80536;SDS011;69867;47.074;15.404;2024-01-07T05:20:33;0.73;;;0.10;;
80536;SDS011;69867;47.074;15.404;2024-01-07T05:22:58;0.75;;;0.20;;
80536;SDS011;69867;47.074;15.404;2024-01-07T05:25:23;1.30;;;0.25;;
80536;SDS011;69867;47.074;15.404;2024-01-07T05:27:49;1.65;;;0.32;;
80536;SDS011;69867;47.074;15.404;2024-01-07T05:30:14;1.25;;;0.50;;
80536;SDS011;69867;47.074;15.404;2024-01-07T05:32:39;1.08;;;0.30;;
80536;SDS011;69867;47.074;15.404;2024-01-07T05:35:05;0.88;;;0.30;;
80536;SDS011;69867;47.074;15.404;2024-01-07T05:37:30;0.75;;;0.20;;
80536;SDS011;69867;47.074;15.404;2024-01-07T05:39:56;1.35;;;0.30;;
80536;SDS011;69867;47.074;15.404;2024-01-07T05:42:21;2.08;;;0.32;;
80536;SDS011;69867;47.074;15.404;2024-01-07T05:44:46;0.95;;;0.30;;
80536;SDS011;69867;47.074;15.404;2024-01-07T05:47:12;1.23;;;0.30;;
80536;SDS011;69867;47.074;15.404;2024-01-07T05:49:37;1.27;;;0.20;;
80536;SDS011;69867;47.074;15.404;2024-01-07T05:52:03;0.65;;;0.20;;
80536;SDS011;69867;47.074;15.404;2024-01-07T05:54:28;1.02;;;0.20;;
80536;SDS011;69867;47.074;15.404;2024-01-07T05:56:53;1.17;;;0.35;;
80536;SDS011;69867;47.074;15.404;2024-01-07T05:59:19;0.50;;;0.15;;
80536;SDS011;69867;47.074;15.404;2024-01-07T06:01:45;1.20;;;0.30;;
80536;SDS011;69867;47.074;15.404;2024-01-07T06:04:10;0.73;;;0.20;;
80536;SDS011;69867;47.074;15.404;2024-01-07T06:06:36;0.70;;;0.15;;
80536;SDS011;69867;47.074;15.404;2024-01-07T06:09:01;1.10;;;0.40;;
80536;SDS011;69867;47.074;15.404;2024-01-07T06:11:26;2.53;;;0.20;;
80536;SDS011;69867;47.074;15.404;2024-01-07T06:13:52;1.23;;;0.20;;
80536;SDS011;69867;47.074;15.404;2024-01-07T06:16:17;1.90;;;0.20;;
80536;SDS011;69867;47.074;15.404;2024-01-07T06:18:42;1.20;;;0.22;;
80536;SDS011;69867;47.074;15.404;2024-01-07T06:21:08;1.25;;;0.28;;
80536;SDS011;69867;47.074;15.404;2024-01-07T06:23:33;0.80;;;0.13;;
80536;SDS011;69867;47.074;15.404;2024-01-07T06:25:59;0.90;;;0.13;;
80536;SDS011;69867;47.074;15.404;2024-01-07T06:28:24;0.70;;;0.20;;
80536;SDS011;69867;47.074;15.404;2024-01-07T06:30:49;0.85;;;0.30;;
80536;SDS011;69867;47.074;15.404;2024-01-07T06:33:15;0.63;;;0.20;;
80536;SDS011;69867;47.074;15.404;2024-01-07T06:35:40;0.30;;;0.10;;
80536;SDS011;69867;47.074;15.404;2024-01-07T06:38:06;1.10;;;0.20;;
80536;SDS011;69867;47.074;15.404;2024-01-07T06:40:31;1.33;;;0.30;;
80536;SDS011;69867;47.074;15.404;2024-01-07T06:42:56;1.35;;;0.30;;
80536;SDS011;69867;47.074;15.404;2024-01-07T06:45:22;1.25;;;0.40;;
80536;SDS011;69867;47.074;15.404;2024-01-07T06:47:47;1.10;;;0.20;;
80536;SDS011;69867;47.074;15.404;2024-01-07T06:50:12;0.93;;;0.30;;
80536;SDS011;69867;47.074;15.404;2024-01-07T06:52:38;0.73;;;0.20;;
80536;SDS011;69867;47.074;15.404;2024-01-07T06:55:03;1.23;;;0.17;;
80536;SDS011;69867;47.074;15.404;2024-01-07T06:57:29;1.20;;;0.20;;
80536;SDS011;69867;47.074;15.404;2024-01-07T06:59:54;1.67;;;0.35;;
80536;SDS011;69867;47.074;15.404;2024-01-07T07:02:20;0.90;;;0.20;;
80536;SDS011;69867;47.074;15.404;2024-01-07T07:04:45;0.82;;;0.10;;
80536;SDS011;69867;47.074;15.404;2024-01-07T07:07:11;0.85;;;0.30;;
80536;SDS011;69867;47.074;15.404;2024-01-07T07:09:36;1.02;;;0.20;;
80536;SDS011;69867;47.074;15.404;2024-01-07T07:12:01;1.17;;;0.30;;
80536;SDS011;69867;47.074;15.404;2024-01-07T07:14:27;0.73;;;0.10;;
80536;SDS011;69867;47.074;15.404;2024-01-07T07:16:52;0.50;;;0.10;;
80536;SDS011;69867;47.074;15.404;2024-01-07T07:19:17;0.77;;;0.10;;
80536;SDS011;69867;47.074;15.404;2024-01-07T07:21:43;1.70;;;0.30;;
80536;SDS011;69867;47.074;15.404;2024-01-07T07:24:08;0.70;;;0.20;;
80536;SDS011;69867;47.074;15.404;2024-01-07T07:26:34;1.02;;;0.20;;
80536;SDS011;69867;47.074;15.404;2024-01-07T07:28:59;1.95;;;0.10;;
80536;SDS011;69867;47.074;15.404;2024-01-07T07:31:25;0.70;;;0.20;;
80536;SDS011;69867;47.074;15.404;2024-01-07T07:33:50;0.30;;;0.10;;
80536;SDS011;69867;47.074;15.404;2024-01-07T07:36:15;0.73;;;0.22;;
80536;SDS011;69867;47.074;15.404;2024-01-07T07:38:41;0.63;;;0.22;;
80536;SDS011;69867;47.074;15.404;2024-01-07T07:41:06;0.57;;;0.20;;
80536;SDS011;69867;47.074;15.404;2024-01-07T07:43:31;0.73;;;0.20;;
80536;SDS011;69867;47.074;15.404;2024-01-07T07:45:57;1.38;;;0.22;;
80536;SDS011;69867;47.074;15.404;2024-01-07T07:48:22;0.65;;;0.20;;
80536;SDS011;69867;47.074;15.404;2024-01-07T07:50:48;0.70;;;0.20;;
80536;SDS011;69867;47.074;15.404;2024-01-07T07:53:14;0.63;;;0.20;;
80536;SDS011;69867;47.074;15.404;2024-01-07T07:55:39;0.57;;;0.20;;
80536;SDS011;69867;47.074;15.404;2024-01-07T07:58:04;1.20;;;0.40;;
80536;SDS011;69867;47.074;15.404;2024-01-07T08:00:30;1.08;;;0.30;;
80536;SDS011;69867;47.074;15.404;2024-01-07T08:02:55;1.13;;;0.30;;
80536;SDS011;69867;47.074;15.404;2024-01-07T08:05:20;1.30;;;0.30;;
80536;SDS011;69867;47.074;15.404;2024-01-07T08:07:46;0.75;;;0.20;;
80536;SDS011;69867;47.074;15.404;2024-01-07T08:10:11;1.33;;;0.20;;
80536;SDS011;69867;47.074;15.404;2024-01-07T08:12:36;1.48;;;0.47;;
80536;SDS011;69867;47.074;15.404;2024-01-07T08:15:02;0.63;;;0.20;;
80536;SDS011;69867;47.074;15.404;2024-01-07T08:17:27;1.30;;;0.40;;
80536;SDS011;69867;47.074;15.404;2024-01-07T08:19:52;1.20;;;0.30;;
80536;SDS011;69867;47.074;15.404;2024-01-07T08:22:18;0.60;;;0.22;;
80536;SDS011;69867;47.074;15.404;2024-01-07T08:24:43;0.95;;;0.30;;
80536;SDS011;69867;47.074;15.404;2024-01-07T08:27:08;1.98;;;0.40;;
80536;SDS011;69867;47.074;15.404;2024-01-07T08:29:34;0.80;;;0.22;;
80536;SDS011;69867;47.074;15.404;2024-01-07T08:31:59;0.82;;;0.30;;
80536;SDS011;69867;47.074;15.404;2024-01-07T08:34:25;0.80;;;0.17;;
80536;SDS011;69867;47.074;15.404;2024-01-07T08:36:50;1.33;;;0.30;;
80536;SDS011;69867;47.074;15.404;2024-01-07T08:39:16;1.27;;;0.40;;
80536;SDS011;69867;47.074;15.404;2024-01-07T08:41:41;1.15;;;0.30;;
80536;SDS011;69867;47.074;15.404;2024-01-07T08:44:06;0.88;;;0.20;;
80536;SDS011;69867;47.074;15.404;2024-01-07T08:46:32;1.75;;;0.30;;
80536;SDS011;69867;47.074;15.404;2024-01-07T08:48:57;1.45;;;0.57;;
80536;SDS011;69867;47.074;15.404;2024-01-07T08:51:22;1.48;;;0.60;;
80536;SDS011;69867;47.074;15.404;2024-01-07T08:53:48;1.48;;;0.60;;
80536;SDS011;69867;47.074;15.404;2024-01-07T08:56:13;1.25;;;0.30;;
80536;SDS011;69867;47.074;15.404;2024-01-07T08:58:41;0.93;;;0.20;;
80536;SDS011;69867;47.074;15.404;2024-01-07T09:01:06;0.85;;;0.20;;
80536;SDS011;69867;47.074;15.404;2024-01-07T09:03:32;2.78;;;0.55;;
80536;SDS011;69867;47.074;15.404;2024-01-07T09:05:57;1.17;;;0.40;;
80536;SDS011;69867;47.074;15.404;2024-01-07T09:08:22;1.40;;;0.30;;
80536;SDS011;69867;47.074;15.404;2024-01-07T09:10:48;1.23;;;0.43;;
80536;SDS011;69867;47.074;15.404;2024-01-07T09:13:13;1.08;;;0.28;;
80536;SDS011;69867;47.074;15.404;2024-01-07T09:15:38;1.02;;;0.30;;
80536;SDS011;69867;47.074;15.404;2024-01-07T09:18:04;1.30;;;0.30;;
80536;SDS011;69867;47.074;15.404;2024-01-07T09:20:29;2.38;;;0.40;;
80536;SDS011;69867;47.074;15.404;2024-01-07T09:22:55;0.63;;;0.20;;
80536;SDS011;69867;47.074;15.404;2024-01-07T09:25:20;1.00;;;0.30;;
80536;SDS011;69867;47.074;15.404;2024-01-07T09:27:45;1.83;;;0.40;;
80536;SDS011;69867;47.074;15.404;2024-01-07T09:30:11;1.70;;;0.30;;
80536;SDS011;69867;47.074;15.404;2024-01-07T09:32:36;1.15;;;0.32;;
80536;SDS011;69867;47.074;15.404;2024-01-07T09:35:02;1.25;;;0.30;;
80536;SDS011;69867;47.074;15.404;2024-01-07T09:37:27;1.70;;;0.40;;
80536;SDS011;69867;47.074;15.404;2024-01-07T09:39:53;1.50;;;0.30;;
80536;SDS011;69867;47.074;15.404;2024-01-07T09:42:18;1.20;;;0.30;;
80536;SDS011;69867;47.074;15.404;2024-01-07T09:44:44;0.95;;;0.30;;
80536;SDS011;69867;47.074;15.404;2024-01-07T09:47:14;1.48;;;0.38;;
80536;SDS011;69867;47.074;15.404;2024-01-07T09:49:40;1.00;;;0.40;;
80536;SDS011;69867;47.074;15.404;2024-01-07T09:52:06;1.15;;;0.30;;
80536;SDS011;69867;47.074;15.404;2024-01-07T09:54:33;1.20;;;0.30;;
80536;SDS011;69867;47.074;15.404;2024-01-07T09:57:01;1.00;;;0.30;;
80536;SDS011;69867;47.074;15.404;2024-01-07T09:59:28;0.88;;;0.28;;
80536;SDS011;69867;47.074;15.404;2024-01-07T10:01:54;1.08;;;0.28;;
80536;SDS011;69867;47.074;15.404;2024-01-07T10:04:20;1.10;;;0.47;;
80536;SDS011;69867;47.074;15.404;2024-01-07T10:06:45;0.98;;;0.20;;
80536;SDS011;69867;47.074;15.404;2024-01-07T10:09:11;1.35;;;0.40;;
80536;SDS011;69867;47.074;15.404;2024-01-07T10:11:37;0.82;;;0.30;;
80536;SDS011;69867;47.074;15.404;2024-01-07T10:14:02;1.10;;;0.30;;
80536;SDS011;69867;47.074;15.404;2024-01-07T10:16:27;1.63;;;0.43;;
80536;SDS011;69867;47.074;15.404;2024-01-07T10:18:53;1.58;;;0.40;;
80536;SDS011;69867;47.074;15.404;2024-01-07T10:21:18;1.00;;;0.35;;
80536;SDS011;69867;47.074;15.404;2024-01-07T10:23:43;2.78;;;0.80;;
80536;SDS011;69867;47.074;15.404;2024-01-07T10:26:09;1.15;;;0.30;;
80536;SDS011;69867;47.074;15.404;2024-01-07T10:28:34;1.25;;;0.40;;
80536;SDS011;69867;47.074;15.404;2024-01-07T10:30:59;1.90;;;0.55;;
80536;SDS011;69867;47.074;15.404;2024-01-07T10:33:25;1.15;;;0.38;;
80536;SDS011;69867;47.074;15.404;2024-01-07T10:35:56;2.45;;;0.63;;
80536;SDS011;69867;47.074;15.404;2024-01-07T10:38:25;2.28;;;0.70;;
80536;SDS011;69867;47.074;15.404;2024-01-07T10:40:52;2.65;;;0.70;;
80536;SDS011;69867;47.074;15.404;2024-01-07T10:43:19;2.92;;;0.73;;
80536;SDS011;69867;47.074;15.404;2024-01-07T10:45:46;1.60;;;0.50;;
80536;SDS011;69867;47.074;15.404;2024-01-07T10:48:12;1.92;;;0.57;;
80536;SDS011;69867;47.074;15.404;2024-01-07T10:50:42;2.00;;;0.70;;
80536;SDS011;69867;47.074;15.404;2024-01-07T10:53:10;1.25;;;0.60;;
80536;SDS011;69867;47.074;15.404;2024-01-07T10:55:40;1.13;;;0.40;;
80536;SDS011;69867;47.074;15.404;2024-01-07T10:58:08;2.55;;;0.57;;
80536;SDS011;69867;47.074;15.404;2024-01-07T11:00:34;1.35;;;0.43;;
80536;SDS011;69867;47.074;15.404;2024-01-07T11:03:02;1.80;;;0.50;;
80536;SDS011;69867;47.074;15.404;2024-01-07T11:05:43;1.42;;;0.45;;
80536;SDS011;69867;47.074;15.404;2024-01-07T11:08:34;3.35;;;0.68;;
80536;SDS011;69867;47.074;15.404;2024-01-07T11:11:05;3.20;;;0.60;;
80536;SDS011;69867;47.074;15.404;2024-01-07T11:13:35;1.33;;;0.45;;
80536;SDS011;69867;47.074;15.404;2024-01-07T11:16:02;1.77;;;0.52;;
80536;SDS011;69867;47.074;15.404;2024-01-07T11:18:27;1.98;;;0.43;;
80536;SDS011;69867;47.074;15.404;2024-01-07T11:20:53;1.67;;;0.43;;
80536;SDS011;69867;47.074;15.404;2024-01-07T11:23:28;1.92;;;0.40;;
80536;SDS011;69867;47.074;15.404;2024-01-07T11:25:56;1.67;;;0.60;;
80536;SDS011;69867;47.074;15.404;2024-01-07T11:28:46;3.55;;;0.50;;
80536;SDS011;69867;47.074;15.404;2024-01-07T11:31:12;1.73;;;0.50;;
80536;SDS011;69867;47.074;15.404;2024-01-07T11:33:42;2.53;;;0.63;;
80536;SDS011;69867;47.074;15.404;2024-01-07T11:36:12;1.85;;;0.50;;
80536;SDS011;69867;47.074;15.404;2024-01-07T11:38:48;2.58;;;0.50;;
80536;SDS011;69867;47.074;15.404;2024-01-07T11:41:14;1.63;;;0.80;;
80536;SDS011;69867;47.074;15.404;2024-01-07T11:43:56;1.90;;;0.45;;
80536;SDS011;69867;47.074;15.404;2024-01-07T11:46:22;2.25;;;0.60;;
80536;SDS011;69867;47.074;15.404;2024-01-07T11:48:48;1.58;;;0.50;;
80536;SDS011;69867;47.074;15.404;2024-01-07T11:51:15;1.40;;;0.40;;
80536;SDS011;69867;47.074;15.404;2024-01-07T11:53:40;1.45;;;0.40;;
80536;SDS011;69867;47.074;15.404;2024-01-07T11:56:08;1.40;;;0.50;;
80536;SDS011;69867;47.074;15.404;2024-01-07T11:58:33;3.45;;;1.10;;
80536;SDS011;69867;47.074;15.404;2024-01-07T12:00:59;1.70;;;0.47;;
80536;SDS011;69867;47.074;15.404;2024-01-07T12:03:24;2.20;;;0.68;;
80536;SDS011;69867;47.074;15.404;2024-01-07T12:05:49;1.70;;;0.70;;
80536;SDS011;69867;47.074;15.404;2024-01-07T12:08:15;2.15;;;0.65;;
80536;SDS011;69867;47.074;15.404;2024-01-07T12:10:40;1.77;;;0.63;;
80536;SDS011;69867;47.074;15.404;2024-01-07T12:13:06;1.80;;;0.70;;
80536;SDS011;69867;47.074;15.404;2024-01-07T12:15:32;2.17;;;0.80;;
80536;SDS011;69867;47.074;15.404;2024-01-07T12:17:58;2.05;;;0.60;;
80536;SDS011;69867;47.074;15.404;2024-01-07T12:20:24;2.38;;;0.68;;
80536;SDS011;69867;47.074;15.404;2024-01-07T12:22:50;2.03;;;0.60;;
80536;SDS011;69867;47.074;15.404;2024-01-07T12:25:20;2.17;;;0.60;;
80536;SDS011;69867;47.074;15.404;2024-01-07T12:27:49;2.50;;;0.93;;
80536;SDS011;69867;47.074;15.404;2024-01-07T12:30:15;1.75;;;0.40;;
80536;SDS011;69867;47.074;15.404;2024-01-07T12:32:40;1.83;;;0.50;;
80536;SDS011;69867;47.074;15.404;2024-01-07T12:35:06;1.80;;;0.60;;
80536;SDS011;69867;47.074;15.404;2024-01-07T12:37:32;1.70;;;0.50;;
80536;SDS011;69867;47.074;15.404;2024-01-07T12:39:57;3.00;;;0.68;;
80536;SDS011;69867;47.074;15.404;2024-01-07T12:42:22;1.45;;;0.40;;
80536;SDS011;69867;47.074;15.404;2024-01-07T12:44:48;2.15;;;0.90;;
80536;SDS011;69867;47.074;15.404;2024-01-07T12:47:13;2.13;;;0.60;;
80536;SDS011;69867;47.074;15.404;2024-01-07T12:49:38;2.40;;;0.70;;
80536;SDS011;69867;47.074;15.404;2024-01-07T12:52:04;2.05;;;0.80;;
80536;SDS011;69867;47.074;15.404;2024-01-07T12:54:29;2.55;;;0.90;;
80536;SDS011;69867;47.074;15.404;2024-01-07T12:56:54;2.58;;;0.93;;
80536;SDS011;69867;47.074;15.404;2024-01-07T12:59:20;2.28;;;0.88;;
80536;SDS011;69867;47.074;15.404;2024-01-07T13:01:45;1.50;;;0.55;;
80536;SDS011;69867;47.074;15.404;2024-01-07T13:04:10;2.65;;;0.77;;
80536;SDS011;69867;47.074;15.404;2024-01-07T13:06:36;1.77;;;0.57;;
80536;SDS011;69867;47.074;15.404;2024-01-07T13:09:01;1.58;;;0.50;;
80536;SDS011;69867;47.074;15.404;2024-01-07T13:11:27;2.13;;;0.82;;
80536;SDS011;69867;47.074;15.404;2024-01-07T13:13:52;1.90;;;0.52;;
80536;SDS011;69867;47.074;15.404;2024-01-07T13:16:18;2.33;;;0.50;;
80536;SDS011;69867;47.074;15.404;2024-01-07T13:18:43;1.92;;;0.70;;
80536;SDS011;69867;47.074;15.404;2024-01-07T13:21:08;2.88;;;0.50;;
80536;SDS011;69867;47.074;15.404;2024-01-07T13:23:34;1.90;;;0.80;;
80536;SDS011;69867;47.074;15.404;2024-01-07T13:25:59;1.88;;;0.60;;
80536;SDS011;69867;47.074;15.404;2024-01-07T13:28:24;1.55;;;0.57;;
80536;SDS011;69867;47.074;15.404;2024-01-07T13:30:50;2.60;;;0.90;;
80536;SDS011;69867;47.074;15.404;2024-01-07T13:33:15;2.08;;;0.70;;
80536;SDS011;69867;47.074;15.404;2024-01-07T13:35:40;2.08;;;0.70;;
80536;SDS011;69867;47.074;15.404;2024-01-07T13:38:06;2.28;;;0.52;;
80536;SDS011;69867;47.074;15.404;2024-01-07T13:40:31;2.38;;;1.13;;
80536;SDS011;69867;47.074;15.404;2024-01-07T13:42:56;1.42;;;0.50;;
80536;SDS011;69867;47.074;15.404;2024-01-07T13:45:22;2.53;;;0.68;;
80536;SDS011;69867;47.074;15.404;2024-01-07T13:47:47;2.08;;;0.70;;
80536;SDS011;69867;47.074;15.404;2024-01-07T13:50:12;1.40;;;0.50;;
80536;SDS011;69867;47.074;15.404;2024-01-07T13:52:38;2.05;;;0.70;;
80536;SDS011;69867;47.074;15.404;2024-01-07T13:55:03;2.80;;;0.98;;
80536;SDS011;69867;47.074;15.404;2024-01-07T13:57:29;1.80;;;0.63;;
80536;SDS011;69867;47.074;15.404;2024-01-07T13:59:55;2.80;;;0.70;;
80536;SDS011;69867;47.074;15.404;2024-01-07T14:02:20;1.88;;;0.63;;
80536;SDS011;69867;47.074;15.404;2024-01-07T14:04:45;2.10;;;0.70;;
80536;SDS011;69867;47.074;15.404;2024-01-07T14:07:11;2.15;;;0.60;;
80536;SDS011;69867;47.074;15.404;2024-01-07T14:09:36;1.95;;;0.63;;
80536;SDS011;69867;47.074;15.404;2024-01-07T14:12:01;3.10;;;0.70;;
80536;SDS011;69867;47.074;15.404;2024-01-07T14:14:27;2.17;;;0.70;;
80536;SDS011;69867;47.074;15.404;2024-01-07T14:16:52;2.88;;;0.80;;
80536;SDS011;69867;47.074;15.404;2024-01-07T14:19:17;2.08;;;0.60;;
80536;SDS011;69867;47.074;15.404;2024-01-07T14:21:43;3.17;;;0.77;;
80536;SDS011;69867;47.074;15.404;2024-01-07T14:24:08;1.83;;;0.70;;